createdAt,value
2017-08-13T00:01:08.788Z,22.64
2017-08-13T00:02:18.738Z,22.61
2017-08-13T00:06:01.340Z,22.36
2017-08-13T00:09:43.354Z,22.31
2017-08-13T00:10:53.330Z,22.25
2017-08-13T00:12:03.577Z,22.27
2017-08-13T00:13:13.522Z,22.21
2017-08-13T00:14:23.453Z,22.22
2017-08-13T00:15:33.705Z,22.21
2017-08-13T00:19:16.317Z,22.05
2017-08-13T00:23:00.124Z,21.96
2017-08-13T00:24:10.057Z,22.02
2017-08-13T00:25:19.993Z,21.96
2017-08-13T00:26:29.918Z,21.86
2017-08-13T00:27:39.861Z,21.88
2017-08-13T00:28:49.479Z,21.94
2017-08-13T00:29:59.413Z,21.94
2017-08-13T00:31:09.658Z,21.92
2017-08-13T00:32:19.890Z,21.86
2017-08-13T00:33:30.135Z,21.94
2017-08-13T00:34:40.379Z,21.92
2017-08-13T00:35:50.306Z,21.92
2017-08-13T00:37:00.568Z,21.86
2017-08-13T00:38:10.517Z,21.92
2017-08-13T00:39:20.460Z,21.92
2017-08-13T00:40:30.694Z,21.9
2017-08-13T00:41:40.619Z,21.92
2017-08-13T00:42:50.239Z,21.86
2017-08-13T00:44:00.197Z,21.75
2017-08-13T00:45:10.124Z,21.84
2017-08-13T00:46:19.748Z,21.8
2017-08-13T00:47:29.364Z,21.75
2017-08-13T00:48:39.298Z,21.77
2017-08-13T00:49:49.234Z,21.69
2017-08-13T00:50:59.186Z,21.77
2017-08-13T00:52:08.827Z,21.71
2017-08-13T00:53:18.757Z,21.67
2017-08-13T00:54:28.709Z,21.61
2017-08-13T00:55:38.647Z,21.59
2017-08-13T00:56:48.893Z,21.53
2017-08-13T00:57:58.513Z,21.58
2017-08-13T00:59:08.758Z,21.49
2017-08-13T01:00:18.715Z,21.46
2017-08-13T01:01:28.652Z,21.44
2017-08-13T01:02:38.607Z,21.4
2017-08-13T01:03:48.538Z,21.37
2017-08-13T01:04:58.475Z,21.34
2017-08-13T01:06:08.110Z,21.31
2017-08-13T01:07:18.052Z,21.22
2017-08-13T01:08:28.002Z,21.31
2017-08-13T01:09:37.346Z,21.27
2017-08-13T01:10:47.589Z,21.27
2017-08-13T01:11:57.513Z,21.32
2017-08-13T01:13:07.440Z,21.27
2017-08-13T01:14:17.682Z,21.32
2017-08-13T01:15:27.619Z,21.28
2017-08-13T01:16:37.558Z,21.28
2017-08-13T01:17:47.795Z,21.24
2017-08-13T01:18:57.719Z,21.22
2017-08-13T01:20:06.733Z,21.28
2017-08-13T01:21:16.691Z,21.29
2017-08-13T01:22:26.631Z,21.35
2017-08-13T01:23:36.880Z,21.31
2017-08-13T01:24:46.796Z,21.35
2017-08-13T01:25:56.717Z,21.37
2017-08-13T01:27:06.974Z,21.42
2017-08-13T01:28:17.243Z,21.49
2017-08-13T01:29:27.207Z,21.47
2017-08-13T01:30:37.132Z,21.44
2017-08-13T01:31:47.069Z,21.5
2017-08-13T01:32:56.998Z,21.43
2017-08-13T01:34:06.324Z,21.53
2017-08-13T01:35:15.959Z,21.62
2017-08-13T01:36:25.268Z,21.61
2017-08-13T01:37:34.883Z,21.54
2017-08-13T01:38:45.126Z,21.65
2017-08-13T01:39:54.745Z,21.65
2017-08-13T01:41:04.409Z,21.65
2017-08-13T01:42:14.346Z,21.67
2017-08-13T01:43:24.579Z,21.56
2017-08-13T01:44:34.506Z,21.54
2017-08-13T01:45:44.151Z,21.54
2017-08-13T01:46:53.822Z,21.47
2017-08-13T01:48:03.785Z,21.5
2017-08-13T01:49:13.105Z,21.52
2017-08-13T01:50:23.030Z,21.44
2017-08-13T01:51:32.969Z,21.43
2017-08-13T01:52:43.200Z,21.43
2017-08-13T01:53:53.126Z,21.4
2017-08-13T01:55:03.056Z,21.44
2017-08-13T01:56:12.689Z,21.44
2017-08-13T01:57:22.921Z,21.43
2017-08-13T01:58:33.195Z,21.44
2017-08-13T01:59:43.140Z,21.4
2017-08-13T02:00:53.431Z,21.47
2017-08-13T02:02:03.361Z,21.35
2017-08-13T02:03:13.300Z,21.42
2017-08-13T02:04:23.921Z,21.44
2017-08-13T02:05:33.866Z,21.31
2017-08-13T02:06:43.800Z,21.31
2017-08-13T02:07:54.026Z,21.22
2017-08-13T02:09:03.638Z,21.24
2017-08-13T02:10:13.259Z,21.28
2017-08-13T02:11:23.483Z,21.24
2017-08-13T02:12:33.416Z,21.25
2017-08-13T02:13:43.670Z,21.13
2017-08-13T02:14:53.281Z,21.13
2017-08-13T02:16:02.891Z,21.14
2017-08-13T02:17:13.145Z,21.17
2017-08-13T02:18:23.082Z,21.06
2017-08-13T02:19:33.378Z,21.06
2017-08-13T02:20:43.027Z,21.01
2017-08-13T02:21:53.262Z,21.13
2017-08-13T02:23:02.893Z,21.14
2017-08-13T02:24:13.180Z,21.27
2017-08-13T02:25:23.403Z,21.24
2017-08-13T02:26:33.337Z,21.29
2017-08-13T02:27:43.363Z,21.38
2017-08-13T02:28:53.630Z,21.37
2017-08-13T02:30:03.562Z,21.53
2017-08-13T02:31:13.873Z,21.58
2017-08-13T02:32:23.802Z,21.61
2017-08-13T02:33:33.732Z,21.65
2017-08-13T02:34:43.953Z,21.71
2017-08-13T02:35:54.185Z,21.72
2017-08-13T02:37:03.228Z,21.77
2017-08-13T02:38:13.471Z,21.77
2017-08-13T02:39:23.717Z,21.71
2017-08-13T02:40:33.648Z,21.72
2017-08-13T02:41:43.895Z,21.69
2017-08-13T02:42:53.836Z,21.74
2017-08-13T02:44:03.465Z,21.69
2017-08-13T02:45:13.729Z,21.65
2017-08-13T02:46:23.659Z,21.71
2017-08-13T02:47:32.974Z,21.75
2017-08-13T02:48:43.233Z,21.72
2017-08-13T02:49:53.469Z,21.79
2017-08-13T02:51:03.700Z,21.8
2017-08-13T02:52:13.944Z,21.72
2017-08-13T02:53:24.174Z,21.75
2017-08-13T02:54:33.798Z,21.68
2017-08-13T02:55:43.435Z,21.61
2017-08-13T02:56:53.370Z,21.64
2017-08-13T02:58:03.608Z,21.69
2017-08-13T02:59:13.845Z,21.68
2017-08-13T03:00:23.481Z,21.75
2017-08-13T03:01:33.742Z,21.77
2017-08-13T03:02:43.965Z,21.72
2017-08-13T03:03:54.219Z,21.74
2017-08-13T03:05:04.833Z,21.72
2017-08-13T03:06:14.777Z,21.79
2017-08-13T03:07:24.716Z,21.74
2017-08-13T03:08:34.346Z,21.8
2017-08-13T03:09:44.583Z,21.82
2017-08-13T03:10:54.203Z,21.77
2017-08-13T03:12:03.815Z,21.72
2017-08-13T03:13:14.043Z,21.69
2017-08-13T03:14:23.362Z,21.49
2017-08-13T03:15:33.641Z,21.49
2017-08-13T03:16:43.277Z,21.4
2017-08-13T03:17:53.220Z,21.32
2017-08-13T03:19:03.142Z,21.28
2017-08-13T03:20:13.078Z,21.22
2017-08-13T03:21:23.366Z,21.29
2017-08-13T03:22:33.600Z,21.21
2017-08-13T03:23:43.529Z,21.27
2017-08-13T03:24:53.764Z,21.27
2017-08-13T03:26:03.711Z,21.31
2017-08-13T03:27:13.951Z,21.29
2017-08-13T03:28:24.194Z,21.35
2017-08-13T03:29:34.141Z,21.28
2017-08-13T03:30:44.079Z,21.38
2017-08-13T03:31:53.431Z,21.46
2017-08-13T03:33:03.370Z,21.46
2017-08-13T03:34:12.990Z,21.4
2017-08-13T03:35:22.896Z,21.47
2017-08-13T03:36:32.856Z,21.43
2017-08-13T03:37:42.795Z,21.44
2017-08-13T03:38:53.012Z,21.53
2017-08-13T03:40:02.957Z,21.54
2017-08-13T03:41:12.887Z,21.54
2017-08-13T03:42:22.815Z,21.59
2017-08-13T03:43:33.062Z,21.64
2017-08-13T03:44:43.316Z,21.59
2017-08-13T03:45:53.241Z,21.61
2017-08-13T03:47:03.483Z,21.67
2017-08-13T03:48:13.135Z,21.65
2017-08-13T03:49:23.400Z,21.62
2017-08-13T03:50:33.680Z,21.61
2017-08-13T03:51:43.906Z,21.62
2017-08-13T03:52:54.124Z,21.69
2017-08-13T03:54:04.072Z,21.67
2017-08-13T03:55:13.989Z,21.71
2017-08-13T03:56:23.920Z,21.62
2017-08-13T03:57:34.170Z,21.68
2017-08-13T03:58:44.096Z,21.62
2017-08-13T03:59:53.713Z,21.61
2017-08-13T04:01:03.949Z,21.61
2017-08-13T04:02:13.886Z,21.68
2017-08-13T04:03:23.837Z,21.68
2017-08-13T04:04:33.470Z,21.61
2017-08-13T04:05:43.386Z,21.61
2017-08-13T04:06:53.605Z,21.65
2017-08-13T04:08:03.223Z,21.54
2017-08-13T04:09:13.164Z,21.49
2017-08-13T04:10:23.385Z,21.54
2017-08-13T04:11:33.637Z,21.58
2017-08-13T04:12:43.289Z,21.56
2017-08-13T04:13:53.201Z,21.54
2017-08-13T04:15:02.189Z,21.54
2017-08-13T04:16:11.805Z,21.54
2017-08-13T04:17:21.120Z,21.56
2017-08-13T04:18:31.375Z,21.5
2017-08-13T04:19:40.996Z,21.54
2017-08-13T04:20:51.230Z,21.53
2017-08-13T04:22:01.463Z,21.58
2017-08-13T04:23:11.409Z,21.52
2017-08-13T04:24:20.726Z,21.46
2017-08-13T04:25:30.031Z,21.53
2017-08-13T04:26:39.946Z,21.52
2017-08-13T04:27:50.173Z,21.62
2017-08-13T04:28:59.803Z,21.58
2017-08-13T04:30:10.062Z,21.54
2017-08-13T04:31:20.296Z,21.5
2017-08-13T04:32:30.519Z,21.58
2017-08-13T04:33:40.757Z,21.54
2017-08-13T04:34:50.363Z,21.64
2017-08-13T04:36:00.608Z,21.59
2017-08-13T04:37:10.860Z,21.54
2017-08-13T04:38:20.796Z,21.54
2017-08-13T04:39:30.451Z,21.56
2017-08-13T04:40:40.705Z,21.68
2017-08-13T04:41:50.623Z,21.65
2017-08-13T04:43:00.557Z,21.68
2017-08-13T04:44:10.171Z,21.74
2017-08-13T04:45:20.434Z,21.74
2017-08-13T04:46:30.695Z,21.86
2017-08-13T04:47:40.642Z,21.88
2017-08-13T04:48:50.583Z,21.86
2017-08-13T04:50:00.212Z,21.83
2017-08-13T04:51:10.140Z,21.86
2017-08-13T04:52:20.387Z,21.86
2017-08-13T04:53:30.319Z,21.86
2017-08-13T04:54:39.959Z,21.84
2017-08-13T04:55:50.202Z,21.84
2017-08-13T04:57:00.125Z,21.91
2017-08-13T04:58:09.451Z,21.92
2017-08-13T04:59:19.691Z,21.82
2017-08-13T05:00:28.691Z,21.77
2017-08-13T05:01:38.638Z,21.8
2017-08-13T05:02:48.570Z,21.79
2017-08-13T05:03:58.214Z,21.69
2017-08-13T05:05:08.149Z,21.74
2017-08-13T05:06:18.083Z,21.77
2017-08-13T05:07:28.037Z,21.77
2017-08-13T05:08:37.964Z,21.77
2017-08-13T05:09:48.205Z,21.83
2017-08-13T05:10:58.149Z,21.74
2017-08-13T05:12:07.454Z,21.84
2017-08-13T05:13:17.073Z,21.69
2017-08-13T05:14:27.316Z,21.71
2017-08-13T05:15:37.555Z,21.91
2017-08-13T05:16:47.184Z,21.9
2017-08-13T05:17:57.410Z,21.84
2017-08-13T05:19:07.335Z,21.82
2017-08-13T05:20:17.269Z,21.82
2017-08-13T05:21:27.190Z,21.8
2017-08-13T05:22:37.423Z,21.77
2017-08-13T05:23:47.682Z,21.71
2017-08-13T05:24:57.610Z,21.69
2017-08-13T05:26:07.845Z,21.69
2017-08-13T05:27:17.787Z,21.53
2017-08-13T05:28:27.715Z,21.56
2017-08-13T05:29:37.023Z,21.54
2017-08-13T05:30:46.643Z,21.5
2017-08-13T05:31:56.890Z,21.53
2017-08-13T05:33:06.820Z,21.56
2017-08-13T05:34:16.432Z,21.54
2017-08-13T05:35:26.083Z,21.56
2017-08-13T05:36:36.019Z,21.54
2017-08-13T05:37:46.248Z,21.56
2017-08-13T05:38:56.176Z,21.58
2017-08-13T05:40:06.110Z,21.53
2017-08-13T05:41:16.068Z,21.58
2017-08-13T05:42:26.306Z,21.56
2017-08-13T05:43:36.559Z,21.49
2017-08-13T05:44:45.874Z,21.46
2017-08-13T05:45:55.502Z,21.44
2017-08-13T05:47:05.114Z,21.49
2017-08-13T05:48:15.061Z,21.43
2017-08-13T05:49:24.676Z,21.4
2017-08-13T05:50:34.911Z,21.42
2017-08-13T05:51:44.532Z,21.44
2017-08-13T05:52:54.449Z,21.37
2017-08-13T05:54:04.398Z,21.4
2017-08-13T05:55:14.333Z,21.42
2017-08-13T05:56:24.568Z,21.4
2017-08-13T05:57:34.487Z,21.34
2017-08-13T05:58:44.713Z,21.37
2017-08-13T05:59:54.666Z,21.32
2017-08-13T06:01:04.888Z,21.37
2017-08-13T06:02:15.123Z,21.4
2017-08-13T06:03:24.776Z,21.34
2017-08-13T06:04:34.392Z,21.4
2017-08-13T06:05:44.609Z,21.52
2017-08-13T06:06:54.226Z,21.53
2017-08-13T06:08:04.462Z,21.64
2017-08-13T06:09:14.070Z,21.65
2017-08-13T06:10:23.677Z,21.71
2017-08-13T06:11:33.599Z,21.75
2017-08-13T06:12:43.836Z,21.77
2017-08-13T06:13:53.757Z,21.86
2017-08-13T06:15:03.404Z,21.88
2017-08-13T06:16:13.344Z,21.82
2017-08-13T06:17:23.267Z,21.91
2017-08-13T06:18:33.223Z,21.88
2017-08-13T06:19:42.842Z,22.05
2017-08-13T06:20:53.074Z,21.98
2017-08-13T06:22:03.000Z,21.98
2017-08-13T06:23:12.917Z,22.06
2017-08-13T06:24:22.548Z,22.1
2017-08-13T06:25:32.467Z,22.1
2017-08-13T06:26:42.703Z,22.27
2017-08-13T06:27:52.321Z,22.15
2017-08-13T06:29:02.553Z,22.27
2017-08-13T06:30:12.485Z,22.24
2017-08-13T06:31:22.724Z,22.31
2017-08-13T06:32:33.019Z,22.35
2017-08-13T06:33:42.940Z,22.46
2017-08-13T06:34:52.891Z,22.47
2017-08-13T06:36:03.121Z,22.52
2017-08-13T06:37:12.746Z,22.57
2017-08-13T06:38:22.677Z,22.61
2017-08-13T06:39:32.615Z,22.67
2017-08-13T06:40:42.232Z,22.7
2017-08-13T06:41:52.438Z,22.7
2017-08-13T06:43:02.330Z,22.82
2017-08-13T06:44:12.665Z,22.83
2017-08-13T06:45:23.170Z,22.9
2017-08-13T06:46:33.480Z,22.88
2017-08-13T06:47:44.707Z,22.86
2017-08-13T06:48:55.131Z,23.01
2017-08-13T06:50:04.597Z,23.02
2017-08-13T06:51:13.913Z,23.05
2017-08-13T06:52:23.564Z,23.05
2017-08-13T06:53:33.196Z,23.17
2017-08-13T06:54:43.555Z,23.16
2017-08-13T06:55:54.158Z,23.15
2017-08-13T06:57:04.917Z,23.25
2017-08-13T06:58:15.613Z,23.17
2017-08-13T06:59:26.338Z,23.15
2017-08-13T07:00:36.260Z,23.12
2017-08-13T07:01:46.756Z,23.16
2017-08-13T07:02:56.396Z,23.04
2017-08-13T07:04:06.319Z,23.1
2017-08-13T07:05:16.565Z,23.1
2017-08-13T07:06:26.202Z,22.98
2017-08-13T07:07:35.208Z,23
2017-08-13T07:08:44.835Z,22.9
2017-08-13T07:09:55.073Z,22.86
2017-08-13T07:11:04.994Z,22.92
2017-08-13T07:12:15.232Z,22.9
2017-08-13T07:13:25.152Z,22.92
2017-08-13T07:14:35.393Z,22.94
2017-08-13T07:15:45.323Z,22.94
2017-08-13T07:16:55.543Z,22.97
2017-08-13T07:18:05.456Z,23.02
2017-08-13T07:19:15.397Z,23.01
2017-08-13T07:20:25.026Z,23.15
2017-08-13T07:21:35.255Z,23.17
2017-08-13T07:22:45.188Z,23.19
2017-08-13T07:23:55.131Z,23.27
2017-08-13T07:25:05.347Z,23.25
2017-08-13T07:26:14.986Z,23.42
2017-08-13T07:27:25.213Z,23.48
2017-08-13T07:28:35.153Z,23.58
2017-08-13T07:29:45.383Z,23.87
2017-08-13T07:30:55.318Z,24.43
2017-08-13T07:32:05.253Z,24.81
2017-08-13T07:33:15.507Z,25.23
2017-08-13T07:34:25.777Z,25.6
2017-08-13T07:35:35.743Z,25.91
2017-08-13T07:36:44.767Z,26.12
2017-08-13T07:37:55.004Z,26.3
2017-08-13T07:39:04.938Z,26.47
2017-08-13T07:40:14.864Z,26.66
2017-08-13T07:41:24.791Z,26.88
2017-08-13T07:42:34.413Z,27.09
2017-08-13T07:43:44.335Z,27.21
2017-08-13T07:44:53.953Z,27.41
2017-08-13T07:46:04.211Z,27.57
2017-08-13T07:47:14.169Z,27.74
2017-08-13T07:48:23.799Z,27.88
2017-08-13T07:49:33.749Z,27.92
2017-08-13T07:50:43.983Z,27.84
2017-08-13T07:51:54.455Z,27.69
2017-08-13T07:53:04.420Z,27.6
2017-08-13T07:54:14.660Z,27.63
2017-08-13T07:55:24.916Z,27.59
2017-08-13T07:56:35.182Z,27.67
2017-08-13T07:57:44.527Z,27.77
2017-08-13T07:58:54.459Z,27.87
2017-08-13T08:00:04.420Z,27.97
2017-08-13T08:01:14.045Z,28.04
2017-08-13T08:02:24.278Z,28.24
2017-08-13T08:03:34.223Z,28.3
2017-08-13T08:04:44.471Z,28.37
2017-08-13T08:05:54.726Z,28.34
2017-08-13T08:07:04.366Z,28.46
2017-08-13T08:08:14.625Z,28.49
2017-08-13T08:09:24.300Z,28.4
2017-08-13T08:10:34.252Z,28.44
2017-08-13T08:11:44.188Z,28.54
2017-08-13T08:12:54.444Z,28.46
2017-08-13T08:14:04.678Z,28.43
2017-08-13T08:15:14.335Z,28.39
2017-08-13T08:16:24.576Z,28.43
2017-08-13T08:17:34.504Z,28.43
2017-08-13T08:18:44.499Z,28.39
2017-08-13T08:19:54.736Z,28.33
2017-08-13T08:21:04.994Z,28.33
2017-08-13T08:22:14.632Z,28.27
2017-08-13T08:23:23.659Z,28.27
2017-08-13T08:24:33.937Z,28.3
2017-08-13T08:25:43.932Z,28.37
2017-08-13T08:26:53.869Z,28.31
2017-08-13T08:28:03.953Z,28.33
2017-08-13T08:29:14.229Z,28.29
2017-08-13T08:30:24.153Z,28.27
2017-08-13T08:31:34.089Z,28.12
2017-08-13T08:32:44.035Z,28
2017-08-13T08:33:53.959Z,27.97
2017-08-13T08:35:04.212Z,27.99
2017-08-13T08:36:14.469Z,27.88
2017-08-13T08:37:23.488Z,27.79
2017-08-13T08:38:33.441Z,27.79
2017-08-13T08:39:43.680Z,27.69
2017-08-13T08:40:53.936Z,27.63
2017-08-13T08:42:03.273Z,27.62
2017-08-13T08:43:13.217Z,27.54
2017-08-13T08:44:23.986Z,27.46
2017-08-13T08:45:35.668Z,27.62
2017-08-13T08:46:46.286Z,27.79
2017-08-13T08:47:56.250Z,27.9
2017-08-13T08:49:06.548Z,28.03
2017-08-13T08:50:16.174Z,28.03
2017-08-13T08:51:25.839Z,27.96
2017-08-13T08:52:35.220Z,27.88
2017-08-13T08:53:44.856Z,27.84
2017-08-13T08:54:55.148Z,27.57
2017-08-13T08:56:05.082Z,27.43
2017-08-13T08:57:15.011Z,27.29
2017-08-13T08:58:24.974Z,27.03
2017-08-13T08:59:34.927Z,26.89
2017-08-13T09:00:44.867Z,26.67
2017-08-13T09:01:55.147Z,26.48
2017-08-13T09:03:05.378Z,26.36
2017-08-13T09:04:15.303Z,26.1
2017-08-13T09:05:24.617Z,25.99
2017-08-13T09:06:34.854Z,25.98
2017-08-13T09:07:44.817Z,25.87
2017-08-13T09:08:54.769Z,25.6
2017-08-13T09:10:04.742Z,25.58
2017-08-13T09:11:14.700Z,25.57
2017-08-13T09:12:24.369Z,25.36
2017-08-13T09:13:34.618Z,25.3
2017-08-13T09:14:44.551Z,25.27
2017-08-13T09:15:54.795Z,25.15
2017-08-13T09:17:04.746Z,25.2
2017-08-13T09:18:15.005Z,25.03
2017-08-13T09:19:25.251Z,25.02
2017-08-13T09:20:35.222Z,24.99
2017-08-13T09:21:44.546Z,24.93
2017-08-13T09:22:54.832Z,24.81
2017-08-13T09:24:04.774Z,24.84
2017-08-13T09:25:15.037Z,24.76
2017-08-13T09:26:24.985Z,24.71
2017-08-13T09:27:34.603Z,24.77
2017-08-13T09:28:44.525Z,24.68
2017-08-13T09:29:54.464Z,24.68
2017-08-13T09:31:04.724Z,24.58
2017-08-13T09:32:14.944Z,24.55
2017-08-13T09:33:24.885Z,24.55
2017-08-13T09:34:35.092Z,24.5
2017-08-13T09:35:45.330Z,24.47
2017-08-13T09:36:54.984Z,24.47
2017-08-13T09:38:05.244Z,24.39
2017-08-13T09:39:15.503Z,24.39
2017-08-13T09:40:25.433Z,24.42
2017-08-13T09:41:35.380Z,24.4
2017-08-13T09:42:45.621Z,24.31
2017-08-13T09:43:55.885Z,24.25
2017-08-13T09:45:05.851Z,24.24
2017-08-13T09:46:16.113Z,24.22
2017-08-13T09:47:26.056Z,24.25
2017-08-13T09:48:36.014Z,24.13
2017-08-13T09:49:45.966Z,24.03
2017-08-13T09:50:55.889Z,24.02
2017-08-13T09:52:05.200Z,23.94
2017-08-13T09:53:15.447Z,23.91
2017-08-13T09:54:25.083Z,23.88
2017-08-13T09:55:34.726Z,23.79
2017-08-13T09:56:44.676Z,23.73
2017-08-13T09:57:54.605Z,23.63
2017-08-13T09:59:04.529Z,23.61
2017-08-13T10:00:14.494Z,23.51
2017-08-13T10:01:24.425Z,23.47
2017-08-13T10:02:34.347Z,23.42
2017-08-13T10:03:43.964Z,23.48
2017-08-13T10:04:54.221Z,23.39
2017-08-13T10:06:03.838Z,23.38
2017-08-13T10:07:14.073Z,23.35
2017-08-13T10:08:24.322Z,23.2
2017-08-13T10:09:34.578Z,23.25
2017-08-13T10:10:43.927Z,23.19
2017-08-13T10:11:53.876Z,23.23
2017-08-13T10:13:04.469Z,23.22
2017-08-13T10:14:14.749Z,23.23
2017-08-13T10:15:24.979Z,23.16
2017-08-13T10:16:35.013Z,23.15
2017-08-13T10:17:44.324Z,23.12
2017-08-13T10:18:54.317Z,23.19
2017-08-13T10:20:04.402Z,23.13
2017-08-13T10:21:14.579Z,23.16
2017-08-13T10:22:25.344Z,23.2
2017-08-13T10:23:35.353Z,23.16
2017-08-13T10:24:45.379Z,23.15
2017-08-13T10:25:55.370Z,23.16
2017-08-13T10:27:05.319Z,23.13
2017-08-13T10:28:15.265Z,23.13
2017-08-13T10:29:25.542Z,23.16
2017-08-13T10:30:35.501Z,23.05
2017-08-13T10:31:44.797Z,23.13
2017-08-13T10:32:54.406Z,23.01
2017-08-13T10:34:04.673Z,23.12
2017-08-13T10:35:14.920Z,23.1
2017-08-13T10:36:24.833Z,23.07
2017-08-13T10:37:34.494Z,23.13
2017-08-13T10:38:44.150Z,23.07
2017-08-13T10:39:54.080Z,23.07
2017-08-13T10:41:04.055Z,23.05
2017-08-13T10:42:13.376Z,23.05
2017-08-13T10:43:23.330Z,23.12
2017-08-13T10:44:33.657Z,23.17
2017-08-13T10:45:43.587Z,23.15
2017-08-13T10:46:53.528Z,23.2
2017-08-13T10:48:04.246Z,23.22
2017-08-13T10:49:14.537Z,23.19
2017-08-13T10:50:24.820Z,23.28
2017-08-13T10:51:34.176Z,23.27
2017-08-13T10:52:44.455Z,23.27
2017-08-13T10:53:54.721Z,23.42
2017-08-13T10:55:05.006Z,23.39
2017-08-13T10:56:14.933Z,23.2
2017-08-13T10:57:24.871Z,23.28
2017-08-13T10:58:35.114Z,23.39
2017-08-13T10:59:45.371Z,23.25
2017-08-13T11:00:55.638Z,23.27
2017-08-13T11:02:05.920Z,23.35
2017-08-13T11:03:15.867Z,23.32
2017-08-13T11:04:26.126Z,23.33
2017-08-13T11:05:36.390Z,23.25
2017-08-13T11:06:46.350Z,23.23
2017-08-13T11:07:56.298Z,23.27
2017-08-13T11:09:06.540Z,23.17
2017-08-13T11:10:16.793Z,23.07
2017-08-13T11:11:27.047Z,23.19
2017-08-13T11:12:36.664Z,23.23
2017-08-13T11:13:46.601Z,23.17
2017-08-13T11:14:56.243Z,23.16
2017-08-13T11:16:06.485Z,23.15
2017-08-13T11:17:16.464Z,23.19
2017-08-13T11:18:26.725Z,23.2
2017-08-13T11:19:36.971Z,23.15
2017-08-13T11:20:46.612Z,23.15
2017-08-13T11:21:56.571Z,23.16
2017-08-13T11:23:06.513Z,23.16
2017-08-13T11:24:16.761Z,23.05
2017-08-13T11:25:26.408Z,23.02
2017-08-13T11:26:36.670Z,23.05
2017-08-13T11:27:46.633Z,23.05
2017-08-13T11:28:56.271Z,23.12
2017-08-13T11:30:06.252Z,23.05
2017-08-13T11:31:16.200Z,23.09
2017-08-13T11:32:26.174Z,23.16
2017-08-13T11:33:36.431Z,23.16
2017-08-13T11:34:46.380Z,23.15
2017-08-13T11:35:56.338Z,23.17
2017-08-13T11:37:06.587Z,23.25
2017-08-13T11:38:16.843Z,23.17
2017-08-13T11:39:26.479Z,23.23
2017-08-13T11:40:36.415Z,23.23
2017-08-13T11:41:46.080Z,23.17
2017-08-13T11:42:56.042Z,23.25
2017-08-13T11:44:06.333Z,23.27
2017-08-13T11:45:16.314Z,23.28
2017-08-13T11:46:25.963Z,23.39
2017-08-13T11:47:35.932Z,23.39
2017-08-13T11:48:45.579Z,23.39
2017-08-13T11:49:55.204Z,23.35
2017-08-13T11:51:05.466Z,23.27
2017-08-13T11:52:15.433Z,23.38
2017-08-13T11:53:25.065Z,23.42
2017-08-13T11:54:35.323Z,23.39
2017-08-13T11:55:44.635Z,23.35
2017-08-13T11:56:54.872Z,23.4
2017-08-13T11:58:04.646Z,23.46
2017-08-13T11:59:14.895Z,23.43
2017-08-13T12:00:24.868Z,23.46
2017-08-13T12:01:34.843Z,23.47
2017-08-13T12:02:44.782Z,23.5
2017-08-13T12:03:55.028Z,23.53
2017-08-13T12:05:04.994Z,23.55
2017-08-13T12:06:14.948Z,23.5
2017-08-13T12:07:25.734Z,23.53
2017-08-13T12:08:36.041Z,23.53
2017-08-13T12:09:46.024Z,23.53
2017-08-13T12:10:56.299Z,23.5
2017-08-13T12:12:06.567Z,23.55
2017-08-13T12:13:16.805Z,23.51
2017-08-13T12:14:26.741Z,23.58
2017-08-13T12:15:36.979Z,23.55
2017-08-13T12:16:46.606Z,23.54
2017-08-13T12:17:56.548Z,23.5
2017-08-13T12:19:06.514Z,23.53
2017-08-13T12:20:16.780Z,23.46
2017-08-13T12:21:26.125Z,23.54
2017-08-13T12:22:35.794Z,23.53
2017-08-13T12:23:46.066Z,23.46
2017-08-13T12:24:56.041Z,23.51
2017-08-13T12:26:06.038Z,23.53
2017-08-13T12:27:16.271Z,23.47
2017-08-13T12:28:26.216Z,23.46
2017-08-13T12:29:35.852Z,23.46
2017-08-13T12:30:45.803Z,23.4
2017-08-13T12:31:56.059Z,23.43
2017-08-13T12:33:05.741Z,23.43
2017-08-13T12:34:15.680Z,23.4
2017-08-13T12:35:25.632Z,23.4
2017-08-13T12:36:34.963Z,23.38
2017-08-13T12:37:44.002Z,23.39
2017-08-13T12:38:53.939Z,23.43
2017-08-13T12:40:03.569Z,23.36
2017-08-13T12:41:13.510Z,23.35
2017-08-13T12:42:23.747Z,23.38
2017-08-13T12:43:33.985Z,23.43
2017-08-13T12:44:43.303Z,23.4
2017-08-13T12:45:53.562Z,23.43
2017-08-13T12:47:03.809Z,23.4
2017-08-13T12:48:13.749Z,23.46
2017-08-13T12:49:23.732Z,23.4
2017-08-13T12:50:33.366Z,23.47
2017-08-13T12:51:43.297Z,23.42
2017-08-13T12:52:52.936Z,23.43
2017-08-13T12:54:02.882Z,23.47
2017-08-13T12:55:12.513Z,23.42
2017-08-13T12:56:22.461Z,23.42
2017-08-13T12:57:32.560Z,23.51
2017-08-13T12:58:43.349Z,23.42
2017-08-13T12:59:53.275Z,23.51
2017-08-13T13:01:02.904Z,23.47
2017-08-13T13:02:12.857Z,23.47
2017-08-13T13:03:22.860Z,23.48
2017-08-13T13:04:33.494Z,23.51
2017-08-13T13:05:43.796Z,23.48
2017-08-13T13:06:54.027Z,23.51
2017-08-13T13:08:04.350Z,23.51
2017-08-13T13:09:14.610Z,23.51
2017-08-13T13:10:24.580Z,23.51
2017-08-13T13:11:34.514Z,23.5
2017-08-13T13:12:44.494Z,23.48
2017-08-13T13:13:53.831Z,23.54
2017-08-13T13:15:04.089Z,23.53
2017-08-13T13:16:14.342Z,23.54
2017-08-13T13:17:23.354Z,23.54
2017-08-13T13:18:33.593Z,23.58
2017-08-13T13:19:43.539Z,23.55
2017-08-13T13:20:53.793Z,23.54
2017-08-13T13:22:03.742Z,23.57
2017-08-13T13:23:13.491Z,23.61
2017-08-13T13:24:23.717Z,23.5
2017-08-13T13:25:33.368Z,23.6
2017-08-13T13:26:42.694Z,23.68
2017-08-13T13:27:52.591Z,23.66
2017-08-13T13:29:02.493Z,23.63
2017-08-13T13:30:12.347Z,23.68
2017-08-13T13:31:21.982Z,23.68
2017-08-13T13:32:31.621Z,23.66
2017-08-13T13:33:41.549Z,23.7
2017-08-13T13:34:51.234Z,23.79
2017-08-13T13:36:00.935Z,23.78
2017-08-13T13:37:10.309Z,23.72
2017-08-13T13:38:20.240Z,23.76
2017-08-13T13:39:29.861Z,23.75
2017-08-13T13:40:39.794Z,23.83
2017-08-13T13:41:50.057Z,23.83
2017-08-13T13:43:00.168Z,23.76
2017-08-13T13:44:10.124Z,23.76
2017-08-13T13:45:20.372Z,23.88
2017-08-13T13:46:30.307Z,23.88
2017-08-13T13:47:40.261Z,23.88
2017-08-13T13:48:49.969Z,23.88
2017-08-13T13:50:00.080Z,23.9
2017-08-13T13:51:10.321Z,23.9
2017-08-13T13:52:20.295Z,23.9
2017-08-13T13:53:29.934Z,23.83
2017-08-13T13:54:39.551Z,23.9
2017-08-13T13:55:49.191Z,23.85
2017-08-13T13:56:59.416Z,23.85
2017-08-13T13:58:09.079Z,23.85
2017-08-13T13:59:19.326Z,23.79
2017-08-13T14:00:29.269Z,23.85
2017-08-13T14:01:38.911Z,23.83
2017-08-13T14:02:49.161Z,23.76
2017-08-13T14:03:59.604Z,23.79
2017-08-13T14:05:09.951Z,23.79
2017-08-13T14:06:20.348Z,23.68
2017-08-13T14:07:30.299Z,23.83
2017-08-13T14:08:40.273Z,23.73
2017-08-13T14:09:49.918Z,23.85
2017-08-13T14:11:01.233Z,23.75
2017-08-13T14:12:11.397Z,23.79
2017-08-13T14:13:21.012Z,23.85
2017-08-13T14:14:30.641Z,23.9
2017-08-13T14:15:40.878Z,23.85
2017-08-13T14:16:50.820Z,23.87
2017-08-13T14:18:00.990Z,23.87
2017-08-13T14:19:10.609Z,23.83
2017-08-13T14:20:20.557Z,23.84
2017-08-13T14:21:32.249Z,23.9
2017-08-13T14:22:43.138Z,23.93
2017-08-13T14:23:52.793Z,23.88
2017-08-13T14:25:02.454Z,23.88
2017-08-13T14:26:12.698Z,23.97
2017-08-13T14:27:22.956Z,24
2017-08-13T14:28:33.209Z,23.95
2017-08-13T14:29:43.169Z,23.95
2017-08-13T14:30:53.132Z,23.97
2017-08-13T14:32:03.357Z,23.9
2017-08-13T14:33:13.140Z,23.9
2017-08-13T14:34:22.758Z,23.95
2017-08-13T14:35:32.691Z,23.93
2017-08-13T14:36:41.994Z,23.91
2017-08-13T14:37:51.914Z,23.91
2017-08-13T14:39:01.546Z,23.91
2017-08-13T14:40:11.477Z,23.93
2017-08-13T14:41:21.749Z,23.93
2017-08-13T14:42:31.739Z,23.88
2017-08-13T14:43:41.436Z,23.98
2017-08-13T14:44:51.438Z,23.88
2017-08-13T14:46:01.076Z,23.9
2017-08-13T14:47:11.072Z,23.87
2017-08-13T14:48:20.721Z,23.93
2017-08-13T14:49:30.692Z,23.88
2017-08-13T14:50:41.003Z,23.94
2017-08-13T14:51:50.959Z,23.98
2017-08-13T14:52:59.969Z,23.91
2017-08-13T14:54:09.910Z,24
2017-08-13T14:55:19.874Z,24.05
2017-08-13T14:56:29.533Z,23.94
2017-08-13T14:57:39.479Z,24.09
2017-08-13T14:58:49.921Z,23.94
2017-08-13T14:59:59.556Z,24.06
2017-08-13T15:01:08.898Z,24.08
2017-08-13T15:02:19.161Z,24.05
2017-08-13T15:03:29.384Z,24.06
2017-08-13T15:04:39.306Z,24.05
2017-08-13T15:05:49.558Z,24.05
2017-08-13T15:06:59.185Z,24.08
2017-08-13T15:08:09.420Z,24
2017-08-13T15:09:19.363Z,24.06
2017-08-13T15:10:28.989Z,23.97
2017-08-13T15:11:38.915Z,23.95
2017-08-13T15:12:49.204Z,24.02
2017-08-13T15:13:59.288Z,23.91
2017-08-13T15:15:09.349Z,23.98